createdAt,value
2019-04-25T00:01:14.353Z,97616
2019-04-25T00:02:36.766Z,97619
2019-04-25T00:04:37.006Z,97621
2019-04-25T00:05:58.985Z,97623
2019-04-25T00:07:58.885Z,97622
2019-04-25T00:09:21.922Z,97624
2019-04-25T00:11:22.037Z,97623
2019-04-25T00:12:44.570Z,97626
2019-04-25T00:14:44.482Z,97628
2019-04-25T00:16:06.486Z,97627
2019-04-25T00:18:06.334Z,97627
2019-04-25T00:19:28.292Z,97628
2019-04-25T00:21:28.153Z,97627
2019-04-25T00:22:51.537Z,97630
2019-04-25T00:24:53.129Z,97631
2019-04-25T00:26:15.067Z,97635
2019-04-25T00:28:15.302Z,97643
2019-04-25T00:29:37.239Z,97644
2019-04-25T00:31:38.957Z,97643
2019-04-25T00:33:02.034Z,97643
2019-04-25T00:35:02.134Z,97637
2019-04-25T00:36:24.076Z,97638
2019-04-25T00:38:25.064Z,97637
2019-04-25T00:39:47.203Z,97635
2019-04-25T00:41:47.372Z,97630
2019-04-25T00:43:09.379Z,97631
2019-04-25T00:45:09.211Z,97634
2019-04-25T00:46:32.226Z,97635
2019-04-25T00:48:32.408Z,97632
2019-04-25T00:49:54.338Z,97625
2019-04-25T00:51:55.125Z,97622
2019-04-25T00:53:17.062Z,97622
2019-04-25T00:55:26.200Z,97619
2019-04-25T00:56:52.389Z,97620
2019-04-25T00:58:54.054Z,97618
2019-04-25T01:00:16.095Z,97614
2019-04-25T01:02:15.924Z,97616
2019-04-25T01:03:42.241Z,97619
2019-04-25T01:05:44.378Z,97622
2019-04-25T01:07:06.647Z,97624
2019-04-25T01:09:06.487Z,97625
2019-04-25T01:10:28.430Z,97629
2019-04-25T01:12:28.329Z,97639
2019-04-25T01:13:50.437Z,97642
2019-04-25T01:15:52.914Z,97637
2019-04-25T01:17:15.846Z,97634
2019-04-25T01:19:15.700Z,97639
2019-04-25T01:20:37.681Z,97640
2019-04-25T01:22:37.524Z,97640
2019-04-25T01:23:59.448Z,97642
2019-04-25T01:26:03.310Z,97642
2019-04-25T01:27:33.289Z,97640
2019-04-25T01:29:33.831Z,97643
2019-04-25T01:30:56.263Z,97648
2019-04-25T01:32:57.510Z,97653
2019-04-25T01:34:20.864Z,97653
2019-04-25T01:36:20.977Z,97655
2019-04-25T01:37:43.825Z,97654
2019-04-25T01:39:44.227Z,97658
2019-04-25T01:41:06.336Z,97662
2019-04-25T03:50:06.757Z,97738
2019-04-25T03:51:29.208Z,97741
2019-04-25T03:53:29.072Z,97744
2019-04-25T03:54:51.059Z,97747
2019-04-25T03:56:54.327Z,97748
2019-04-25T03:58:18.094Z,97751
2019-04-25T04:00:17.953Z,97750
2019-04-25T04:01:39.946Z,97750
2019-04-25T04:03:39.861Z,97755
2019-04-25T04:05:04.558Z,97763
2019-04-25T04:07:08.413Z,97768
2019-04-25T04:08:32.166Z,97770
2019-04-25T04:10:33.240Z,97772
2019-04-25T04:12:38.103Z,97774
2019-04-25T04:13:59.998Z,97773
2019-04-25T04:15:59.924Z,97775
2019-04-25T04:17:21.864Z,97779
2019-04-25T04:19:21.786Z,97777
2019-04-25T04:20:43.790Z,97779
2019-04-25T04:22:43.908Z,97780
2019-04-25T04:24:06.112Z,97779
2019-04-25T04:26:06.231Z,97784
2019-04-25T04:27:28.255Z,97785
2019-04-25T04:29:28.096Z,97787
2019-04-25T04:30:50.651Z,97787
2019-04-25T04:32:50.578Z,97788
2019-04-25T04:34:14.349Z,97790
2019-04-25T04:36:17.215Z,97792
2019-04-25T04:37:39.679Z,97793
2019-04-25T04:39:39.938Z,97795
2019-04-25T04:41:01.925Z,97797
2019-04-25T04:43:02.089Z,97797
2019-04-25T04:44:24.151Z,97799
2019-04-25T04:46:24.178Z,97800
2019-04-25T04:47:46.153Z,97800
2019-04-25T04:49:46.002Z,97805
2019-04-25T04:51:08.972Z,97807
2019-04-25T04:53:10.929Z,97808
2019-04-25T04:54:34.503Z,97807
2019-04-25T04:56:36.251Z,97805
2019-04-25T04:57:58.171Z,97806
2019-04-25T04:59:58.010Z,97812
2019-04-25T05:01:19.922Z,97819
2019-04-25T05:03:19.915Z,97819
2019-04-25T05:04:43.493Z,97822
2019-04-25T05:06:43.755Z,97823
2019-04-25T05:08:05.793Z,97824
2019-04-25T05:10:05.713Z,97825
2019-04-25T05:11:27.679Z,97825
2019-04-25T05:13:27.605Z,97827
2019-04-25T05:14:49.532Z,97832
2019-04-25T05:16:49.604Z,97831
2019-04-25T05:18:14.184Z,97833
2019-04-25T05:20:18.543Z,97827
2019-04-25T05:21:40.822Z,97830
2019-04-25T05:23:41.428Z,97832
2019-04-25T05:25:03.541Z,97833
2019-04-25T05:27:03.892Z,97834
2019-04-25T05:28:25.993Z,97833
2019-04-25T05:30:26.588Z,97830
2019-04-25T05:31:48.731Z,97827
2019-04-25T05:33:48.793Z,97827
2019-04-25T05:35:10.723Z,97828
2019-04-25T05:37:10.592Z,97828
2019-04-25T05:38:33.302Z,97830
2019-04-25T05:40:33.624Z,97832
2019-04-25T05:41:55.787Z,97833
2019-04-25T05:43:55.795Z,97833
2019-04-25T05:45:18.579Z,97835
2019-04-25T05:47:21.340Z,97834
2019-04-25T05:48:44.583Z,97834
2019-04-25T05:50:45.684Z,97833
2019-04-25T05:52:08.659Z,97831
2019-04-25T05:54:08.589Z,97829
2019-04-25T05:55:30.576Z,97829
2019-04-25T05:57:44.886Z,97829
2019-04-25T05:59:08.096Z,97828
2019-04-25T06:01:08.256Z,97824
2019-04-25T06:02:30.296Z,97824
2019-04-25T06:04:30.348Z,97826
2019-04-25T06:05:53.338Z,97829
2019-04-25T06:07:54.317Z,97832
2019-04-25T06:09:17.680Z,97832
2019-04-25T06:11:18.061Z,97837
2019-04-25T06:12:40.020Z,97837
2019-04-25T06:14:43.289Z,97841
2019-04-25T06:16:05.389Z,97839
2019-04-25T06:18:05.849Z,97833
2019-04-25T06:19:27.891Z,97830
2019-04-25T06:21:27.788Z,97829
2019-04-25T06:22:49.787Z,97830
2019-04-25T06:24:49.707Z,97832
2019-04-25T06:26:22.563Z,97831
2019-04-25T06:28:26.246Z,97833
2019-04-25T06:29:57.624Z,97829
2019-04-25T06:32:06.547Z,97829
2019-04-25T06:33:30.357Z,97829
2019-04-25T06:35:30.242Z,97830
2019-04-25T06:36:53.597Z,97834
2019-04-25T06:38:54.478Z,97830
2019-04-25T06:40:16.405Z,97823
2019-04-25T06:42:17.316Z,97818
2019-04-25T06:43:39.314Z,97817
2019-04-25T06:45:39.371Z,97819
2019-04-25T06:47:01.383Z,97810
2019-04-25T06:49:01.362Z,97806
2019-04-25T06:50:24.875Z,97798
2019-04-25T06:52:30.654Z,97799
2019-04-25T06:53:54.038Z,97803
2019-04-25T06:55:54.843Z,97805
2019-04-25T06:57:16.854Z,97807
2019-04-25T06:59:18.486Z,97802
2019-04-25T07:00:42.632Z,97800
2019-04-25T07:02:49.613Z,97797
2019-04-25T07:04:11.549Z,97797
2019-04-25T07:06:12.946Z,97803
2019-04-25T07:07:37.207Z,97803
2019-04-25T07:09:37.214Z,97801
2019-04-25T07:10:59.209Z,97801
2019-04-25T07:12:59.071Z,97805
2019-04-25T07:14:21.061Z,97806
2019-04-25T07:16:24.050Z,97806
2019-04-25T07:19:04.587Z,97801
2019-04-25T07:20:27.036Z,97805
2019-04-25T07:22:27.347Z,97806
2019-04-25T07:23:49.314Z,97810
2019-04-25T07:25:49.211Z,97810
2019-04-25T07:27:16.224Z,97812
2019-04-25T07:29:16.258Z,97811
2019-04-25T07:32:47.003Z,97811
2019-04-25T07:34:10.971Z,97812
2019-04-25T07:36:10.856Z,97811
2019-04-25T07:37:34.909Z,97808
2019-04-25T07:39:37.088Z,97808
2019-04-25T07:40:59.071Z,97807
2019-04-25T07:42:58.972Z,97805
2019-04-25T07:44:33.631Z,97808
2019-04-25T07:46:39.260Z,97812
2019-04-25T07:48:01.857Z,97814
2019-04-25T07:50:01.852Z,97812
2019-04-25T07:51:23.790Z,97808
2019-04-25T07:53:24.015Z,97799
2019-04-25T07:54:47.691Z,97799
2019-04-25T07:56:49.211Z,97796
2019-04-25T07:58:11.312Z,97790
2019-04-25T08:00:11.296Z,97787
2019-04-25T08:01:36.102Z,97783
2019-04-25T08:03:37.139Z,97783
2019-04-25T08:04:59.076Z,97784
2019-04-25T08:06:58.976Z,97782
2019-04-25T08:08:20.931Z,97787
2019-04-25T08:10:21.612Z,97789
2019-04-25T08:11:44.107Z,97792
2019-04-25T08:13:44.044Z,97795
2019-04-25T08:15:05.998Z,97802
2019-04-25T08:17:05.925Z,97805
2019-04-25T08:18:28.714Z,97807
2019-04-25T08:20:29.277Z,97809
2019-04-25T08:21:51.367Z,97810
2019-04-25T08:23:51.216Z,97810
2019-04-25T08:25:13.786Z,97806
2019-04-25T08:27:13.803Z,97807
2019-04-25T08:28:48.849Z,97804
2019-04-25T08:41:16.179Z,97808
2019-04-25T08:42:38.094Z,97807
2019-04-25T08:44:37.933Z,97808
2019-04-25T08:45:59.961Z,97805
2019-04-25T08:48:03.666Z,97798
2019-04-25T08:49:25.697Z,97792
2019-04-25T08:51:25.535Z,97788
2019-04-25T08:52:47.434Z,97785
2019-04-25T08:54:47.696Z,97784
2019-04-25T08:56:11.678Z,97777
2019-04-25T08:58:11.549Z,97779
2019-04-25T08:59:40.073Z,97778
2019-04-25T09:01:45.193Z,97777
2019-04-25T09:03:07.304Z,97779
2019-04-25T09:05:07.259Z,97778
2019-04-25T09:06:29.402Z,97777
2019-04-25T09:08:29.582Z,97775
2019-04-25T09:09:53.527Z,97775
2019-04-25T09:11:54.383Z,97777
2019-04-25T09:13:16.726Z,97777
2019-04-25T09:15:16.729Z,97775
2019-04-25T09:16:39.806Z,97774
2019-04-25T09:18:40.267Z,97773
2019-04-25T09:20:03.882Z,97772
2019-04-25T09:22:03.937Z,97771
2019-04-25T09:23:26.975Z,97771
2019-04-25T09:25:26.808Z,97772
2019-04-25T09:26:48.830Z,97769
2019-04-25T09:28:48.732Z,97769
2019-04-25T09:30:10.649Z,97768
2019-04-25T09:32:10.506Z,97765
2019-04-25T09:33:34.168Z,97762
2019-04-25T09:35:36.051Z,97764
2019-04-25T09:36:58.158Z,97764
2019-04-25T09:38:57.996Z,97760
2019-04-25T09:40:19.998Z,97758
2019-04-25T09:42:19.848Z,97754
2019-04-25T09:43:41.917Z,97751
2019-04-25T09:45:43.462Z,97752
2019-04-25T09:47:06.982Z,97752
2019-04-25T09:49:08.828Z,97751
2019-04-25T09:50:30.830Z,97744
2019-04-25T09:52:30.731Z,97746
2019-04-25T09:53:54.204Z,97743
2019-04-25T09:55:54.309Z,97743
2019-04-25T09:57:16.251Z,97739
2019-04-25T09:59:26.774Z,97735
2019-04-25T10:00:54.716Z,97737
2019-04-25T10:02:55.534Z,97741
2019-04-25T10:04:17.536Z,97735
2019-04-25T10:06:17.374Z,97729
2019-04-25T10:07:39.299Z,97730
2019-04-25T10:09:39.853Z,97733
2019-04-25T10:11:01.927Z,97730
2019-04-25T10:13:04.031Z,97724
2019-04-25T10:14:28.131Z,97728
2019-04-25T10:16:28.004Z,97726
2019-04-25T10:17:49.938Z,97721
2019-04-25T10:19:49.784Z,97721
2019-04-25T10:21:12.010Z,97722
2019-04-25T10:23:11.872Z,97721
2019-04-25T10:24:33.853Z,97723
2019-04-25T10:26:34.909Z,97721
2019-04-25T10:27:57.066Z,97714
2019-04-25T10:29:57.776Z,97713
2019-04-25T10:31:19.777Z,97716
2019-04-25T10:33:19.646Z,97716
2019-04-25T10:34:44.663Z,97713
2019-04-25T10:36:46.777Z,97708
2019-04-25T10:38:09.787Z,97703
2019-04-25T10:40:09.845Z,97709
2019-04-25T10:41:33.623Z,97707
2019-04-25T10:43:35.796Z,97707
2019-04-25T10:44:57.849Z,97705
2019-04-25T10:46:57.697Z,97699
2019-04-25T10:48:19.613Z,97698
2019-04-25T10:50:19.460Z,97694
2019-04-25T10:51:42.718Z,97695
2019-04-25T10:53:46.022Z,97691
2019-04-25T10:55:08.896Z,97693
2019-04-25T10:57:09.376Z,97694
2019-04-25T10:58:31.292Z,97695
2019-04-25T11:00:31.211Z,97692
2019-04-25T11:01:55.089Z,97690
2019-04-25T11:03:55.668Z,97686
2019-04-25T11:05:18.328Z,97685
2019-04-25T11:07:18.653Z,97689
2019-04-25T11:08:40.568Z,97688
2019-04-25T11:10:40.583Z,97681
2019-04-25T11:12:03.608Z,97677
2019-04-25T11:14:03.545Z,97679
2019-04-25T11:15:25.452Z,97674
2019-04-25T11:17:25.470Z,97676
2019-04-25T11:18:47.598Z,97674
2019-04-25T11:20:47.609Z,97674
2019-04-25T11:22:09.690Z,97668
2019-04-25T11:24:09.617Z,97666
2019-04-25T11:25:31.569Z,97665
2019-04-25T11:27:31.451Z,97663
2019-04-25T11:28:54.409Z,97657
2019-04-25T11:30:55.504Z,97655
2019-04-25T11:32:19.881Z,97656
2019-04-25T11:34:20.600Z,97653
2019-04-25T11:35:42.586Z,97650
2019-04-25T11:37:43.166Z,97653
2019-04-25T11:39:05.203Z,97648
2019-04-25T11:41:05.067Z,97647
2019-04-25T11:42:27.053Z,97646
2019-04-25T11:44:26.902Z,97645
2019-04-25T11:45:49.221Z,97642
2019-04-25T11:47:49.862Z,97641
2019-04-25T11:49:13.115Z,97637
2019-04-25T11:51:15.037Z,97639
2019-04-25T11:52:43.715Z,97635
2019-04-25T11:54:45.745Z,97627
2019-04-25T11:56:08.735Z,97626
2019-04-25T11:58:08.728Z,97628
2019-04-25T11:59:30.735Z,97625
2019-04-25T12:01:30.587Z,97622
2019-04-25T12:02:52.589Z,97620
2019-04-25T12:04:54.863Z,97614
2019-04-25T12:06:20.494Z,97608
2019-04-25T12:08:21.065Z,97605
2019-04-25T12:09:46.499Z,97605
2019-04-25T12:11:47.225Z,97606
2019-04-25T12:13:10.505Z,97605
2019-04-25T12:15:10.352Z,97603
2019-04-25T12:16:32.406Z,97598
2019-04-25T12:18:33.903Z,97596
2019-04-25T12:19:57.494Z,97597
2019-04-25T12:21:58.170Z,97600
2019-04-25T12:23:21.215Z,97598
2019-04-25T12:25:21.213Z,97595
2019-04-25T12:26:45.102Z,97589
2019-04-25T12:28:47.316Z,97589
2019-04-25T12:30:09.292Z,97588
2019-04-25T12:32:09.129Z,97588
2019-04-25T12:33:32.000Z,97584
2019-04-25T12:35:33.311Z,97583
2019-04-25T12:36:55.369Z,97582
2019-04-25T12:38:55.559Z,97579
2019-04-25T12:40:17.533Z,97579
2019-04-25T12:42:18.187Z,97580
2019-04-25T12:43:40.343Z,97578
2019-04-25T12:45:40.164Z,97578
2019-04-25T12:47:03.358Z,97580
2019-04-25T12:49:03.290Z,97579
2019-04-25T12:50:25.213Z,97576
2019-04-25T12:52:25.054Z,97573
2019-04-25T12:53:47.949Z,97570
2019-04-25T12:55:49.014Z,97565
2019-04-25T12:57:10.976Z,97565
2019-04-25T12:59:10.828Z,97564
2019-04-25T13:00:34.203Z,97564
2019-04-25T13:02:36.286Z,97568
2019-04-25T13:03:58.865Z,97571
2019-04-25T13:05:58.817Z,97573
2019-04-25T13:07:20.729Z,97573
2019-04-25T13:09:20.654Z,97572
2019-04-25T13:10:44.299Z,97564
2019-04-25T13:12:44.458Z,97562
2019-04-25T13:14:06.414Z,97562
2019-04-25T13:16:06.255Z,97561
2019-04-25T13:17:28.247Z,97559
2019-04-25T13:19:28.093Z,97557
2019-04-25T13:20:49.994Z,97553
2019-04-25T13:22:49.847Z,97551
2019-04-25T13:24:11.844Z,97550
2019-04-25T13:26:11.701Z,97547
2019-04-25T13:27:34.011Z,97543
2019-04-25T13:29:33.868Z,97537
2019-04-25T13:31:03.783Z,97535
2019-04-25T13:33:08.600Z,97531
2019-04-25T13:34:36.241Z,97528
2019-04-25T13:36:36.574Z,97527
2019-04-25T13:37:59.297Z,97528
2019-04-25T13:40:00.466Z,97526
2019-04-25T13:41:22.572Z,97524
2019-04-25T13:43:22.413Z,97520
2019-04-25T13:44:44.420Z,97518
2019-04-25T13:46:44.349Z,97516
2019-04-25T13:47:36.588Z,97515
2019-04-25T13:49:23.211Z,97515
2019-04-25T13:50:45.934Z,97514
2019-04-25T13:52:45.769Z,97511
2019-04-25T13:54:08.590Z,97507
2019-04-25T13:56:08.745Z,97506
2019-04-25T13:57:30.641Z,97503
2019-04-25T13:59:30.650Z,97495
2019-04-25T14:00:53.380Z,97487
2019-04-25T14:02:53.210Z,97486
2019-04-25T14:04:15.156Z,97488
2019-04-25T14:06:15.050Z,97487
2019-04-25T14:07:37.008Z,97485
2019-04-25T14:09:38.008Z,97481
2019-04-25T14:10:59.928Z,97477
2019-04-25T14:13:04.798Z,97473
2019-04-25T14:14:26.828Z,97472
2019-04-25T14:16:26.852Z,97471
2019-04-25T14:17:48.840Z,97466
2019-04-25T14:19:48.736Z,97464
2019-04-25T14:21:10.650Z,97460
2019-04-25T14:23:12.962Z,97454
2019-04-25T14:24:36.590Z,97450
2019-04-25T14:26:36.825Z,97444
2019-04-25T14:28:01.179Z,97439
2019-04-25T14:30:01.088Z,97437
2019-04-25T14:31:33.547Z,97435
2019-04-25T14:33:42.201Z,97430
2019-04-25T14:35:04.157Z,97436
2019-04-25T14:37:04.012Z,97431
2019-04-25T14:38:26.572Z,97428
2019-04-25T14:40:27.086Z,97425
2019-04-25T14:41:49.072Z,97420
2019-04-25T14:43:48.970Z,97420
2019-04-25T14:45:11.379Z,97418
2019-04-25T14:47:11.209Z,97417
2019-04-25T14:48:33.526Z,97417
2019-04-25T14:50:34.003Z,97416
2019-04-25T14:51:56.101Z,97418
2019-04-25T14:53:56.970Z,97416
2019-04-25T14:55:19.818Z,97415
2019-04-25T14:57:19.930Z,97412
2019-04-25T14:58:45.443Z,97411
2019-04-25T15:00:49.081Z,97408
2019-04-25T15:02:11.118Z,97406
2019-04-25T15:04:10.990Z,97403
2019-04-25T15:05:33.008Z,97400
2019-04-25T15:07:48.000Z,97393
2019-04-25T15:09:58.000Z,97390
2019-04-25T15:11:21.000Z,97389
2019-04-25T15:13:24.000Z,97385
2019-04-25T15:14:47.000Z,97384
2019-04-25T15:16:47.000Z,97384
2019-04-25T15:18:09.000Z,97381
2019-04-25T15:20:09.000Z,97379
2019-04-25T15:21:32.000Z,97374
2019-04-25T15:23:32.000Z,97371
2019-04-25T15:24:54.000Z,97368
2019-04-25T15:26:54.000Z,97366
2019-04-25T15:28:16.000Z,97363
2019-04-25T15:30:16.000Z,97363
2019-04-25T15:31:38.000Z,97362
2019-04-25T15:33:38.000Z,97356
2019-04-25T15:35:01.000Z,97358
2019-04-25T15:37:01.000Z,97355
2019-04-25T15:38:23.000Z,97355
2019-04-25T15:40:24.000Z,97354
2019-04-25T15:41:47.000Z,97349
2019-04-25T15:43:47.000Z,97349
2019-04-25T15:45:09.000Z,97348
2019-04-25T15:47:08.000Z,97347
2019-04-25T15:48:30.000Z,97344
2019-04-25T15:50:30.000Z,97339
2019-04-25T15:51:54.000Z,97334
2019-04-25T15:53:54.000Z,97331
2019-04-25T15:55:16.000Z,97327
2019-04-25T15:57:16.000Z,97325
2019-04-25T15:58:39.000Z,97324
2019-04-25T16:00:39.000Z,97326
2019-04-25T16:02:01.000Z,97324
2019-04-25T16:04:09.000Z,97325
2019-04-25T16:05:31.000Z,97326
2019-04-25T16:07:32.000Z,97326
2019-04-25T16:08:56.000Z,97325
2019-04-25T16:10:56.000Z,97326
2019-04-25T16:12:18.000Z,97324
2019-04-25T16:14:18.000Z,97326
2019-04-25T16:15:40.000Z,97317
2019-04-25T16:17:41.000Z,97320
2019-04-25T16:19:03.000Z,97318
2019-04-25T16:21:03.000Z,97316
2019-04-25T16:22:25.000Z,97315
2019-04-25T16:24:25.000Z,97315
2019-04-25T16:25:47.000Z,97312
2019-04-25T16:27:47.000Z,97310
2019-04-25T16:29:09.000Z,97308
2019-04-25T16:31:09.000Z,97309
2019-04-25T16:32:31.000Z,97308
2019-04-25T16:34:34.000Z,97307
2019-04-25T16:35:56.000Z,97308
2019-04-25T16:37:56.000Z,97308
2019-04-25T16:39:18.000Z,97310
2019-04-25T16:41:20.000Z,97308
2019-04-25T16:42:42.000Z,97306
2019-04-25T16:44:42.000Z,97307
2019-04-25T16:46:04.000Z,97307
2019-04-25T16:48:06.000Z,97305
2019-04-25T16:49:28.000Z,97308
2019-04-25T16:51:29.000Z,97308
2019-04-25T16:52:53.000Z,97307
2019-04-25T16:54:53.000Z,97309
2019-04-25T16:56:15.000Z,97309
2019-04-25T16:58:15.000Z,97309
2019-04-25T16:59:38.000Z,97307
2019-04-25T17:01:38.000Z,97302
2019-04-25T17:03:00.000Z,97300
2019-04-25T17:05:00.000Z,97298
2019-04-25T17:06:22.000Z,97296
2019-04-25T17:08:22.000Z,97293
2019-04-25T17:09:44.000Z,97289
2019-04-25T17:11:44.000Z,97285
2019-04-25T17:13:06.000Z,97285
2019-04-25T17:15:06.000Z,97280
2019-04-25T17:16:28.000Z,97279
2019-04-25T17:18:30.000Z,97277
2019-04-25T17:19:52.000Z,97279
2019-04-25T17:21:52.000Z,97280
2019-04-25T17:23:15.000Z,97283
2019-04-25T17:25:15.000Z,97283
2019-04-25T17:26:37.000Z,97282
2019-04-25T17:28:37.000Z,97281
2019-04-25T17:29:59.000Z,97280
2019-04-25T17:31:59.000Z,97281
2019-04-25T17:33:23.000Z,97280
2019-04-25T17:35:22.000Z,97277
2019-04-25T17:36:44.000Z,97278
2019-04-25T17:38:44.000Z,97280
2019-04-25T17:40:06.000Z,97280
2019-04-25T17:42:06.000Z,97282
2019-04-25T17:43:28.000Z,97282
2019-04-25T17:45:29.000Z,97282
2019-04-25T17:46:54.000Z,97280
2019-04-25T17:49:06.000Z,97277
2019-04-25T17:50:28.000Z,97277
2019-04-25T17:52:28.000Z,97278
2019-04-25T17:53:50.000Z,97280
2019-04-25T17:55:50.000Z,97283
2019-04-25T17:57:14.000Z,97283
2019-04-25T17:59:14.000Z,97285
2019-04-25T18:00:36.000Z,97286
2019-04-25T18:02:37.000Z,97287
2019-04-25T18:03:59.000Z,97293
2019-04-25T18:05:59.000Z,97293
2019-04-25T18:07:22.000Z,97291
2019-04-25T18:09:22.000Z,97290
2019-04-25T18:10:44.000Z,97288
2019-04-25T18:12:44.000Z,97288
2019-04-25T18:14:11.000Z,97287
2019-04-25T18:16:11.000Z,97288
2019-04-25T18:17:36.000Z,97286
2019-04-25T18:19:38.000Z,97285
2019-04-25T18:21:01.000Z,97283
2019-04-25T18:23:01.000Z,97283
2019-04-25T18:24:24.000Z,97282
2019-04-25T18:26:25.000Z,97280
2019-04-25T18:27:49.000Z,97279
2019-04-25T18:29:49.000Z,97278
2019-04-25T18:31:11.000Z,97278
2019-04-25T18:33:11.000Z,97280
2019-04-25T18:34:33.000Z,97283
2019-04-25T18:36:33.000Z,97282
2019-04-25T18:37:55.000Z,97283
2019-04-25T18:39:55.000Z,97287
2019-04-25T18:41:17.000Z,97287
2019-04-25T18:43:17.000Z,97288
2019-04-25T18:44:39.000Z,97289
2019-04-25T18:46:40.000Z,97290
2019-04-25T18:48:02.000Z,97289
2019-04-25T18:50:02.000Z,97291
2019-04-25T18:51:24.000Z,97293
2019-04-25T18:53:24.000Z,97292
2019-04-25T18:54:46.000Z,97293
2019-04-25T18:56:47.000Z,97298
2019-04-25T18:58:09.000Z,97301
2019-04-25T19:00:09.000Z,97304
2019-04-25T19:01:31.000Z,97306
2019-04-25T19:03:31.000Z,97310
2019-04-25T19:04:53.000Z,97310
2019-04-25T19:06:54.000Z,97311
2019-04-25T19:09:44.000Z,97313
2019-04-25T19:11:06.000Z,97310
2019-04-25T19:13:06.000Z,97309
2019-04-25T19:14:35.000Z,97306
2019-04-25T19:16:35.000Z,97307
2019-04-25T19:17:57.000Z,97307
2019-04-25T19:19:57.000Z,97310
2019-04-25T19:21:19.000Z,97311
2019-04-25T19:23:19.000Z,97312
2019-04-25T19:24:41.000Z,97317
2019-04-25T19:26:48.000Z,97317
2019-04-25T19:28:10.000Z,97318
2019-04-25T19:30:11.000Z,97318
2019-04-25T19:31:33.000Z,97317
2019-04-25T19:33:34.000Z,97319
2019-04-25T19:34:58.000Z,97321
2019-04-25T19:37:00.000Z,97321
2019-04-25T19:38:22.000Z,97320
2019-04-25T19:40:22.000Z,97323
2019-04-25T19:41:44.000Z,97325
2019-04-25T19:43:44.000Z,97324
2019-04-25T19:45:06.000Z,97326
2019-04-25T19:47:07.000Z,97327
2019-04-25T19:48:29.000Z,97329
2019-04-25T19:50:29.000Z,97329
2019-04-25T19:51:51.000Z,97329
2019-04-25T19:53:52.000Z,97334
2019-04-25T19:55:14.000Z,97335
2019-04-25T19:57:14.000Z,97338
2019-04-25T19:58:36.000Z,97342
2019-04-25T20:00:36.000Z,97347
2019-04-25T20:01:58.000Z,97350
2019-04-25T20:03:58.000Z,97350
2019-04-25T20:05:20.000Z,97352
2019-04-25T20:07:22.000Z,97352
2019-04-25T20:08:44.000Z,97350
2019-04-25T20:10:45.000Z,97349
2019-04-25T20:12:07.000Z,97354
2019-04-25T20:14:07.000Z,97356
2019-04-25T20:15:29.000Z,97361
2019-04-25T20:17:29.000Z,97369
2019-04-25T20:18:51.000Z,97387
2019-04-25T20:20:51.000Z,97398
2019-04-25T20:22:13.000Z,97394
2019-04-25T20:24:14.000Z,97391
2019-04-25T20:25:37.000Z,97393
2019-04-25T20:27:37.000Z,97402
2019-04-25T20:28:59.000Z,97413
2019-04-25T20:30:59.000Z,97419
2019-04-25T20:32:21.000Z,97428
2019-04-25T20:34:21.000Z,97437
2019-04-25T20:35:43.000Z,97438
2019-04-25T20:37:43.000Z,97440
2019-04-25T20:39:05.000Z,97444
2019-04-25T20:41:05.000Z,97446
2019-04-25T20:42:27.000Z,97443
2019-04-25T20:44:27.000Z,97444
2019-04-25T20:45:49.000Z,97452
2019-04-25T20:47:50.000Z,97456
2019-04-25T20:49:12.000Z,97454
2019-04-25T20:51:12.000Z,97458
2019-04-25T20:52:34.000Z,97465
2019-04-25T20:54:34.000Z,97471
2019-04-25T20:55:56.000Z,97472
2019-04-25T20:57:56.000Z,97475
2019-04-25T20:59:19.000Z,97480
2019-04-25T21:01:19.000Z,97482
2019-04-25T21:02:41.000Z,97484
2019-04-25T21:04:41.000Z,97486
2019-04-25T21:06:03.000Z,97490
2019-04-25T21:08:03.000Z,97494
2019-04-25T21:09:25.000Z,97497
2019-04-25T21:11:25.000Z,97497
2019-04-25T21:12:47.000Z,97500
2019-04-25T21:14:47.000Z,97500
2019-04-25T21:16:11.000Z,97503
2019-04-25T21:18:10.000Z,97509
2019-04-25T21:19:32.000Z,97515
2019-04-25T21:21:33.000Z,97518
2019-04-25T21:22:55.000Z,97521
2019-04-25T21:24:55.000Z,97526
2019-04-25T21:26:17.000Z,97528
2019-04-25T21:28:17.000Z,97526
2019-04-25T21:29:40.000Z,97525
2019-04-25T21:31:39.000Z,97522
2019-04-25T21:33:02.000Z,97520
2019-04-25T21:35:02.000Z,97520
2019-04-25T21:36:25.000Z,97520
2019-04-25T21:38:25.000Z,97524
2019-04-25T21:39:47.000Z,97526
2019-04-25T21:41:48.000Z,97531
2019-04-25T21:43:10.000Z,97529
2019-04-25T21:45:11.000Z,97536
2019-04-25T21:46:33.000Z,97538
2019-04-25T21:48:33.000Z,97536
2019-04-25T21:49:56.000Z,97536
2019-04-25T21:51:56.000Z,97541
2019-04-25T21:53:18.000Z,97540
2019-04-25T21:55:18.000Z,97538
2019-04-25T21:56:41.000Z,97537
2019-04-25T21:58:41.000Z,97538
2019-04-25T22:00:03.000Z,97538
2019-04-25T22:02:08.000Z,97541
2019-04-25T22:03:31.000Z,97542
2019-04-25T22:05:31.000Z,97546
2019-04-25T22:06:53.000Z,97551
2019-04-25T22:08:54.000Z,97554
2019-04-25T22:10:17.000Z,97559
2019-04-25T22:12:17.000Z,97563
2019-04-25T22:13:39.000Z,97569
2019-04-25T22:15:40.000Z,97570
2019-04-25T22:17:02.000Z,97567
2019-04-25T22:19:03.000Z,97571
2019-04-25T22:20:26.000Z,97573
2019-04-25T22:22:27.000Z,97579
2019-04-25T22:23:49.000Z,97581
2019-04-25T22:25:49.000Z,97579
2019-04-25T22:27:11.000Z,97578
2019-04-25T22:29:11.000Z,97584
2019-04-25T22:30:33.000Z,97590
2019-04-25T22:32:33.000Z,97592
2019-04-25T22:33:55.000Z,97596
2019-04-25T22:35:57.000Z,97596
2019-04-25T22:37:21.000Z,97594
2019-04-25T22:39:21.000Z,97592
2019-04-25T22:40:43.000Z,97591
2019-04-25T22:42:45.000Z,97590
2019-04-25T22:44:07.000Z,97594
2019-04-25T22:46:08.000Z,97597
2019-04-25T22:47:30.000Z,97602
2019-04-25T22:49:30.000Z,97604
2019-04-25T22:50:52.000Z,97604
2019-04-25T22:52:52.000Z,97605
2019-04-25T22:54:14.000Z,97607
2019-04-25T22:56:14.000Z,97611
2019-04-25T22:57:36.000Z,97608
2019-04-25T22:59:35.000Z,97607
2019-04-25T23:00:57.000Z,97604
2019-04-25T23:02:57.000Z,97603
2019-04-25T23:04:19.000Z,97606
2019-04-25T23:06:20.000Z,97610
2019-04-25T23:07:42.000Z,97612
2019-04-25T23:09:42.000Z,97618
2019-04-25T23:11:04.000Z,97622
2019-04-25T23:13:05.000Z,97622
2019-04-25T23:14:28.000Z,97618
2019-04-25T23:16:28.000Z,97613
2019-04-25T23:17:50.000Z,97615
2019-04-25T23:19:50.000Z,97618
2019-04-25T23:21:12.000Z,97619
2019-04-25T23:23:12.000Z,97620
2019-04-25T23:24:36.000Z,97620
2019-04-25T23:26:37.000Z,97617
2019-04-25T23:27:59.000Z,97616
2019-04-25T23:29:59.000Z,97611
2019-04-25T23:31:21.000Z,97608
2019-04-25T23:33:21.000Z,97609
2019-04-25T23:34:44.000Z,97608
2019-04-25T23:36:44.000Z,97603
2019-04-25T23:38:06.000Z,97599
2019-04-25T23:40:06.000Z,97593
2019-04-25T23:41:29.000Z,97588
2019-04-25T23:43:29.000Z,97586
2019-04-25T23:44:51.000Z,97582
2019-04-25T23:46:51.000Z,97582
2019-04-25T23:48:13.000Z,97583
2019-04-25T23:50:14.000Z,97592
2019-04-25T23:51:37.000Z,97599
2019-04-25T23:53:37.000Z,97602
2019-04-25T23:54:59.000Z,97604
2019-04-25T23:57:00.000Z,97600
2019-04-25T23:58:22.000Z,97601
